Time;durP1;ratioP1;P1;durP2;ratioP2;P2;SDS_P1;SDS_P2;PMS_P1;PMS_P2;Temp;Humidity;BMP_temperature;BMP_pressure;BME280_temperature;BME280_humidity;BME280_pressure;Samples;Min_cycle;Max_cycle;Signal;HPM_P1;HPM_P2
2022/10/23 00:01:22;;;;;;;13.23;4.07;;;16.00;99.90;;;;;;5033249;28;20033;-76
2022/10/23 00:03:51;;;;;;;10.37;4.50;;;16.10;99.90;;;;;;5033574;28;20029;-76
2022/10/23 00:06:18;;;;;;;7.85;3.70;;;16.00;99.80;;;;;;5033046;28;20799;-76
2022/10/23 00:08:46;;;;;;;8.65;4.55;;;16.00;99.90;;;;;;5033389;28;20381;-76
2022/10/23 00:11:14;;;;;;;13.27;4.22;;;16.00;99.90;;;;;;5033403;28;20026;-76
2022/10/23 00:13:40;;;;;;;8.05;4.25;;;16.00;99.90;;;;;;5033232;28;20017;-76
2022/10/23 00:16:07;;;;;;;14.77;5.43;;;16.00;99.80;;;;;;5033643;28;20377;-76
2022/10/23 00:18:33;;;;;;;11.10;4.95;;;16.00;99.80;;;;;;5033697;28;20026;-75
2022/10/23 00:20:59;;;;;;;12.43;5.30;;;16.00;99.90;;;;;;5033087;28;20037;-77
2022/10/23 00:23:25;;;;;;;10.32;5.10;;;15.90;99.90;;;;;;5033293;28;20049;-76
2022/10/23 00:25:50;;;;;;;9.05;5.13;;;15.90;99.90;;;;;;5033804;28;20053;-76
2022/10/23 00:28:16;;;;;;;8.43;4.28;;;15.90;99.90;;;;;;5033977;28;20041;-74
2022/10/23 00:30:42;;;;;;;10.15;4.53;;;15.90;99.90;;;;;;5050646;28;20029;-75
2022/10/23 00:33:09;;;;;;;10.73;4.82;;;16.00;99.90;;;;;;5051145;28;20037;-76
2022/10/23 00:35:38;;;;;;;9.75;5.28;;;15.90;99.90;;;;;;5038249;28;20037;-76
2022/10/23 00:38:03;;;;;;;8.90;4.93;;;15.90;99.90;;;;;;5033169;28;20014;-77
2022/10/23 00:40:29;;;;;;;11.15;5.22;;;15.80;99.90;;;;;;5032845;28;20102;-77
2022/10/23 00:42:54;;;;;;;11.93;5.20;;;15.80;99.90;;;;;;5032724;28;20541;-76
2022/10/23 00:45:25;;;;;;;14.32;5.63;;;15.80;99.90;;;;;;5032659;28;20022;-76
2022/10/23 00:47:51;;;;;;;12.15;5.90;;;15.70;99.90;;;;;;5033741;28;20071;-76
2022/10/23 00:50:17;;;;;;;13.23;5.97;;;15.60;99.90;;;;;;5036416;28;20061;-75
2022/10/23 00:52:49;;;;;;;10.18;4.50;;;15.60;99.90;;;;;;5036130;28;20100;-75
2022/10/23 00:55:17;;;;;;;10.07;4.72;;;15.60;99.90;;;;;;5036530;28;20100;-76
2022/10/23 00:57:44;;;;;;;9.40;4.60;;;15.60;99.90;;;;;;5036474;28;20063;-75
2022/10/23 01:00:17;;;;;;;11.07;4.80;;;15.60;99.90;;;;;;5036290;28;20061;-75
2022/10/23 01:02:42;;;;;;;;;;;15.60;99.90;;;;;;5036785;28;20025;-76
2022/10/23 01:05:08;;;;;;;10.20;5.28;;;15.60;99.90;;;;;;5036171;28;19909;-76
2022/10/23 01:07:37;;;;;;;11.75;6.82;;;15.50;99.90;;;;;;5035798;28;20055;-75
2022/10/23 01:10:14;;;;;;;11.18;4.78;;;15.50;99.90;;;;;;5036060;28;20042;-76
2022/10/23 01:12:48;;;;;;;10.93;5.40;;;15.50;99.90;;;;;;5035852;28;20363;-75
2022/10/23 01:15:26;;;;;;;10.18;5.35;;;15.50;99.90;;;;;;5035792;28;20025;-76
2022/10/23 01:18:04;;;;;;;9.07;4.57;;;15.50;99.90;;;;;;5035954;28;20435;-75
2022/10/23 01:20:42;;;;;;;8.90;5.68;;;15.60;99.90;;;;;;5035850;28;20037;-75
2022/10/23 01:23:29;;;;;;;11.13;6.15;;;15.60;99.90;;;;;;5035807;28;20465;-75
2022/10/23 01:26:18;;;;;;;12.90;6.05;;;15.50;99.90;;;;;;5035994;28;20365;-75
2022/10/23 01:28:50;;;;;;;10.27;6.03;;;15.50;99.90;;;;;;5035247;28;20058;-75
2022/10/23 01:31:29;;;;;;;7.95;5.32;;;15.40;99.90;;;;;;5035987;28;20444;-75
2022/10/23 01:33:59;;;;;;;15.98;5.85;;;15.50;99.90;;;;;;5035479;28;20116;-75
2022/10/23 01:36:28;;;;;;;10.57;5.05;;;15.50;99.90;;;;;;5035421;28;20493;-76
2022/10/23 01:39:02;;;;;;;15.23;7.30;;;15.50;99.90;;;;;;5035355;28;20104;-76
2022/10/23 01:41:45;;;;;;;10.55;5.97;;;15.50;99.90;;;;;;5035345;28;20029;-75
2022/10/23 01:44:18;;;;;;;;;;;15.50;99.90;;;;;;5035982;28;20017;-76
2022/10/23 01:46:46;;;;;;;12.68;5.80;;;15.50;99.90;;;;;;5035479;28;19905;-76
2022/10/23 01:49:13;;;;;;;6.70;5.05;;;15.50;99.90;;;;;;5035114;28;20069;-76
2022/10/23 01:51:42;;;;;;;10.23;6.10;;;15.50;99.90;;;;;;5034857;28;20034;-76
2022/10/23 01:54:11;;;;;;;12.00;6.82;;;15.50;99.90;;;;;;5035147;28;20604;-76
2022/10/23 01:56:40;;;;;;;10.40;6.60;;;15.60;99.90;;;;;;5035429;28;20029;-76
2022/10/23 01:59:12;;;;;;;14.68;6.10;;;15.50;99.90;;;;;;5034494;28;20104;-76
2022/10/23 02:01:43;;;;;;;9.70;5.18;;;15.60;99.90;;;;;;5035109;28;20496;-76
2022/10/23 02:04:12;;;;;;;14.00;5.90;;;15.60;99.90;;;;;;5034976;28;20033;-76
2022/10/23 02:06:37;;;;;;;10.13;5.70;;;15.60;99.90;;;;;;5033679;28;20033;-76
2022/10/23 02:09:04;;;;;;;10.70;5.53;;;15.70;99.90;;;;;;5034793;28;20036;-76
2022/10/23 02:11:32;;;;;;;8.85;5.40;;;15.70;99.90;;;;;;5033376;28;20397;-76
2022/10/23 02:14:09;;;;;;;9.93;5.72;;;15.70;99.90;;;;;;5034836;28;20044;-75
2022/10/23 02:16:51;;;;;;;15.00;5.30;;;15.60;99.90;;;;;;5034742;28;20032;-75
2022/10/23 02:19:38;;;;;;;10.20;5.82;;;15.60;99.90;;;;;;5034997;28;20022;-76
2022/10/23 02:22:12;;;;;;;12.02;5.95;;;15.60;99.90;;;;;;5034704;28;20034;-76
2022/10/23 02:24:58;;;;;;;10.50;5.30;;;15.60;99.90;;;;;;5034655;28;20025;-76
2022/10/23 02:27:44;;;;;;;15.02;6.40;;;15.50;99.90;;;;;;5034381;28;20420;-76
2022/10/23 02:30:13;;;;;;;11.32;5.53;;;15.50;99.90;;;;;;5034203;28;20084;-76
2022/10/23 02:32:43;;;;;;;7.38;5.60;;;15.50;99.90;;;;;;5034402;28;20022;-76
2022/10/23 02:35:09;;;;;;;9.27;4.90;;;15.50;99.90;;;;;;5033973;28;20040;-76
2022/10/23 02:37:34;;;;;;;14.55;6.95;;;15.40;99.90;;;;;;5034301;28;20021;-76
2022/10/23 02:40:00;;;;;;;11.95;6.30;;;15.40;99.90;;;;;;5034301;28;20025;-76
2022/10/23 02:42:35;;;;;;;11.35;6.15;;;15.30;99.90;;;;;;5034252;28;20159;-76
2022/10/23 02:45:15;;;;;;;10.63;5.70;;;15.20;99.90;;;;;;5034052;28;20029;-75
2022/10/23 02:48:03;;;;;;;11.73;6.32;;;15.20;99.90;;;;;;5034362;28;20030;-74
2022/10/23 02:51:22;;;;;;;10.20;5.68;;;15.20;99.90;;;;;;5034012;28;20041;-76
2022/10/23 02:54:05;;;;;;;10.95;5.18;;;15.20;99.90;;;;;;5012199;28;20032;-76
2022/10/23 02:56:41;;;;;;;10.32;5.20;;;15.20;99.90;;;;;;5034028;28;20030;-75
2022/10/23 02:59:17;;;;;;;10.25;5.65;;;15.20;99.90;;;;;;5034078;28;20056;-75
2022/10/23 03:01:53;;;;;;;8.88;5.18;;;15.20;99.90;;;;;;5034105;28;20071;-75
2022/10/23 03:04:22;;;;;;;12.05;5.25;;;15.20;99.90;;;;;;5033990;28;20071;-75
2022/10/23 03:06:50;;;;;;;9.38;5.38;;;15.20;99.90;;;;;;5034040;28;20045;-75
2022/10/23 03:09:16;;;;;;;10.35;5.78;;;15.20;99.90;;;;;;5033749;28;20044;-75
2022/10/23 03:11:42;;;;;;;10.40;4.95;;;15.20;99.90;;;;;;5032927;28;20021;-75
2022/10/23 03:14:08;;;;;;;11.82;5.47;;;15.20;99.90;;;;;;5033771;28;20072;-75
2022/10/23 03:16:34;;;;;;;10.25;5.10;;;15.10;99.90;;;;;;5033974;28;20104;-75
2022/10/23 03:18:59;;;;;;;10.88;5.00;;;15.10;99.90;;;;;;5033323;28;20108;-75
2022/10/23 03:21:25;;;;;;;9.88;5.00;;;15.10;99.90;;;;;;5033762;28;20044;-74
2022/10/23 03:23:50;;;;;;;11.48;5.85;;;15.10;99.90;;;;;;5033431;28;20022;-75
2022/10/23 03:26:16;;;;;;;10.38;5.40;;;15.10;99.90;;;;;;5033681;28;20029;-75
2022/10/23 03:28:41;;;;;;;10.85;5.15;;;15.00;99.90;;;;;;5033360;28;20042;-75
2022/10/23 03:31:07;;;;;;;9.55;5.65;;;15.00;99.90;;;;;;5033505;28;20068;-75
2022/10/23 03:33:33;;;;;;;13.52;5.50;;;15.00;99.90;;;;;;5033355;28;20373;-75
2022/10/23 03:35:58;;;;;;;10.60;4.85;;;15.00;99.90;;;;;;5033694;28;20032;-75
2022/10/23 03:38:24;;;;;;;14.35;5.40;;;14.90;99.90;;;;;;5033243;28;20536;-75
2022/10/23 03:40:49;;;;;;;12.27;5.85;;;15.00;99.90;;;;;;5033415;28;20036;-75
2022/10/23 03:43:15;;;;;;;13.23;5.03;;;15.00;99.90;;;;;;5033572;28;20026;-75
2022/10/23 03:45:40;;;;;;;10.48;4.90;;;15.00;99.90;;;;;;5033252;28;20351;-75
2022/10/23 03:48:06;;;;;;;7.95;4.80;;;14.90;99.90;;;;;;5033232;28;20021;-74
2022/10/23 03:50:32;;;;;;;8.70;4.70;;;14.90;99.90;;;;;;5033337;28;20384;-75
2022/10/23 03:52:58;;;;;;;9.27;5.03;;;14.90;99.90;;;;;;5033577;28;20122;-76
2022/10/23 03:55:25;;;;;;;7.07;4.93;;;15.00;99.90;;;;;;5033168;28;20462;-74
2022/10/23 03:57:52;;;;;;;10.38;5.30;;;15.00;99.90;;;;;;5033134;28;20473;-75
2022/10/23 04:00:18;;;;;;;11.50;5.25;;;15.00;99.90;;;;;;5033118;28;20041;-75
2022/10/23 04:02:46;;;;;;;8.80;4.88;;;15.00;99.90;;;;;;5033345;28;20093;-76
2022/10/23 04:05:12;;;;;;;11.27;5.53;;;14.90;99.90;;;;;;5033034;28;20030;-76
2022/10/23 04:07:38;;;;;;;11.90;5.30;;;14.90;99.90;;;;;;5033316;28;20021;-76
2022/10/23 04:10:04;;;;;;;8.95;5.10;;;14.90;99.90;;;;;;5032910;28;20069;-75
2022/10/23 04:12:30;;;;;;;10.20;5.43;;;14.90;99.90;;;;;;5032961;28;20138;-75
2022/10/23 04:14:55;;;;;;;10.50;4.65;;;14.90;99.90;;;;;;5032747;28;20108;-75
2022/10/23 04:17:21;;;;;;;10.88;4.55;;;14.90;99.90;;;;;;5033163;28;20067;-75
2022/10/23 04:19:47;;;;;;;12.15;4.88;;;15.00;99.90;;;;;;5033163;28;20029;-75
2022/10/23 04:22:12;;;;;;;10.73;4.63;;;14.90;99.90;;;;;;5033017;28;20021;-75
2022/10/23 04:24:38;;;;;;;7.47;4.68;;;15.00;99.90;;;;;;5037032;28;20021;-75
2022/10/23 04:27:03;;;;;;;9.93;4.68;;;15.00;99.90;;;;;;5036917;28;20025;-75
2022/10/23 04:29:31;;;;;;;8.15;4.43;;;15.00;99.90;;;;;;5036283;28;20054;-75
2022/10/23 04:31:57;;;;;;;9.32;4.75;;;15.00;99.90;;;;;;5036568;28;20525;-74
2022/10/23 04:34:23;;;;;;;12.93;4.88;;;15.00;99.90;;;;;;5036996;28;20112;-75
2022/10/23 04:36:48;;;;;;;8.75;4.20;;;15.00;99.90;;;;;;5036743;28;20021;-75
2022/10/23 04:39:14;;;;;;;11.70;4.65;;;15.00;99.90;;;;;;5036558;28;20112;-75
2022/10/23 04:41:40;;;;;;;10.32;4.60;;;15.00;99.90;;;;;;5036415;28;20025;-75
2022/10/23 04:44:06;;;;;;;10.38;5.05;;;15.00;99.90;;;;;;5036470;28;20425;-75
2022/10/23 04:46:34;;;;;;;13.68;4.88;;;15.00;99.90;;;;;;5036357;28;20032;-75
2022/10/23 04:49:00;;;;;;;13.43;4.60;;;15.00;99.90;;;;;;5036534;28;20052;-75
2022/10/23 04:51:26;;;;;;;9.90;4.70;;;15.00;99.90;;;;;;5036244;28;20029;-75
2022/10/23 04:53:54;;;;;;;8.35;4.22;;;14.90;99.90;;;;;;5036474;28;20022;-76
2022/10/23 04:56:20;;;;;;;8.65;4.15;;;14.90;99.90;;;;;;5036088;28;20087;-75
2022/10/23 04:58:45;;;;;;;13.40;4.60;;;14.90;99.90;;;;;;5036499;28;20472;-75
2022/10/23 05:01:11;;;;;;;11.15;4.32;;;14.90;99.90;;;;;;5036069;28;20146;-75
2022/10/23 05:03:37;;;;;;;14.70;4.90;;;14.90;99.90;;;;;;5036192;28;20384;-75
2022/10/23 05:06:03;;;;;;;11.35;4.55;;;14.90;99.90;;;;;;5036360;28;20339;-75
2022/10/23 05:08:29;;;;;;;14.52;4.40;;;14.90;99.90;;;;;;5036039;28;20048;-76
2022/10/23 05:10:55;;;;;;;13.65;4.00;;;14.80;99.90;;;;;;5036069;28;20029;-75
2022/10/23 05:13:21;;;;;;;13.15;4.13;;;14.80;99.90;;;;;;5035759;28;20017;-75
2022/10/23 05:15:48;;;;;;;12.93;4.38;;;14.80;99.90;;;;;;5036110;28;20034;-76
2022/10/23 05:18:38;;;;;;;9.23;4.15;;;14.80;99.90;;;;;;5036165;28;20037;-76
2022/10/23 05:21:20;;;;;;;10.10;3.72;;;14.80;99.90;;;;;;5035959;28;20114;-76
2022/10/23 05:23:46;;;;;;;14.20;4.22;;;14.80;99.90;;;;;;5036081;28;20033;-76
2022/10/23 05:26:15;;;;;;;9.02;4.32;;;14.80;99.90;;;;;;5035944;28;20055;-76
2022/10/23 05:28:41;;;;;;;11.43;4.32;;;14.80;99.90;;;;;;5035635;28;20047;-76
2022/10/23 05:31:06;;;;;;;10.10;3.58;;;14.80;99.90;;;;;;5035803;28;20030;-76
2022/10/23 05:33:33;;;;;;;10.25;4.20;;;14.70;99.90;;;;;;5035076;28;20053;-76
2022/10/23 05:35:59;;;;;;;12.20;4.00;;;14.80;99.90;;;;;;5034746;28;20048;-75
2022/10/23 05:38:28;;;;;;;9.80;3.75;;;14.80;99.90;;;;;;5035663;28;20029;-76
2022/10/23 05:40:53;;;;;;;12.57;4.60;;;14.80;99.90;;;;;;5035526;28;20025;-76
2022/10/23 05:43:19;;;;;;;11.15;4.03;;;14.80;99.90;;;;;;5035579;28;20091;-76
2022/10/23 05:45:45;;;;;;;9.73;3.97;;;14.80;99.90;;;;;;5035413;28;20358;-76
2022/10/23 05:48:14;;;;;;;6.88;3.63;;;14.80;99.90;;;;;;5035213;28;20355;-75
2022/10/23 05:50:40;;;;;;;9.25;3.80;;;14.80;99.90;;;;;;5035233;28;20041;-75
2022/10/23 05:53:05;;;;;;;9.43;4.03;;;14.90;99.90;;;;;;5035339;28;20029;-76
2022/10/23 05:55:31;;;;;;;8.52;4.43;;;14.80;99.90;;;;;;5035302;28;20377;-76
2022/10/23 05:57:57;;;;;;;10.93;4.93;;;14.80;99.90;;;;;;5035382;28;20025;-76
2022/10/23 06:00:23;;;;;;;9.18;4.18;;;14.90;99.90;;;;;;5035669;28;20526;-76
2022/10/23 06:02:48;;;;;;;8.20;3.50;;;14.90;99.90;;;;;;5035422;28;20546;-76
2022/10/23 06:05:14;;;;;;;11.43;4.10;;;14.90;99.90;;;;;;5035467;28;20059;-76
2022/10/23 06:07:40;;;;;;;13.50;4.18;;;14.90;99.90;;;;;;5035360;28;20492;-76
2022/10/23 06:10:06;;;;;;;8.85;4.07;;;15.00;99.90;;;;;;5036043;28;20033;-76
2022/10/23 06:12:32;;;;;;;8.98;4.15;;;14.90;99.90;;;;;;5053671;28;20036;-75
2022/10/23 06:14:57;;;;;;;14.15;5.28;;;15.00;99.90;;;;;;5051674;28;20033;-76
2022/10/23 06:17:23;;;;;;;13.05;4.55;;;14.90;99.90;;;;;;5035578;28;20022;-75
2022/10/23 06:19:49;;;;;;;8.20;3.90;;;14.90;99.90;;;;;;5035066;28;20060;-76
2022/10/23 06:22:14;;;;;;;12.65;5.03;;;14.90;99.90;;;;;;5034448;28;20775;-75
2022/10/23 06:24:40;;;;;;;8.52;4.30;;;15.00;99.90;;;;;;5034942;28;20036;-76
2022/10/23 06:27:05;;;;;;;14.50;4.80;;;15.00;99.90;;;;;;5034984;28;20362;-76
2022/10/23 06:29:31;;;;;;;9.35;4.68;;;15.00;99.90;;;;;;5034329;28;20080;-76
2022/10/23 06:31:56;;;;;;;11.15;4.75;;;15.00;99.90;;;;;;5034675;28;20049;-75
2022/10/23 06:34:22;;;;;;;10.50;4.18;;;14.90;99.90;;;;;;5034729;28;20029;-75
2022/10/23 06:36:48;;;;;;;11.55;3.75;;;15.00;99.90;;;;;;5034715;28;20056;-76
2022/10/23 06:39:13;;;;;;;7.45;4.25;;;15.00;99.90;;;;;;5034719;28;20024;-76
2022/10/23 06:41:40;;;;;;;12.55;4.57;;;15.00;99.90;;;;;;5034301;28;20029;-76
2022/10/23 06:44:07;;;;;;;8.88;4.45;;;15.00;99.90;;;;;;5034366;28;20026;-75
2022/10/23 06:46:34;;;;;;;8.07;4.10;;;15.00;99.90;;;;;;5034236;28;20092;-76
2022/10/23 06:49:00;;;;;;;9.70;4.07;;;14.90;99.90;;;;;;5034273;28;20061;-77
2022/10/23 06:51:28;;;;;;;11.45;4.50;;;14.90;99.90;;;;;;5034680;28;20045;-77
2022/10/23 06:53:55;;;;;;;10.63;3.88;;;14.90;99.90;;;;;;5034696;28;20030;-77
2022/10/23 06:56:21;;;;;;;10.60;4.35;;;15.00;99.90;;;;;;5034393;28;20523;-76
2022/10/23 06:58:50;;;;;;;9.88;4.10;;;14.90;99.90;;;;;;5034260;28;20033;-76
2022/10/23 07:01:16;;;;;;;11.32;4.90;;;14.90;99.90;;;;;;5034664;28;20381;-77
2022/10/23 07:03:41;;;;;;;13.02;4.72;;;14.90;99.90;;;;;;5034672;28;20018;-76
2022/10/23 07:06:09;;;;;;;8.65;4.22;;;14.90;99.90;;;;;;5041938;28;20026;-76
2022/10/23 07:08:37;;;;;;;12.07;4.10;;;14.90;99.90;;;;;;5055840;28;20009;-77
2022/10/23 07:11:05;;;;;;;9.05;4.47;;;14.90;99.90;;;;;;5047734;28;20052;-76
2022/10/23 07:13:31;;;;;;;11.10;4.68;;;15.00;99.90;;;;;;5033791;28;20060;-76
2022/10/23 07:15:57;;;;;;;17.27;4.60;;;15.00;99.90;;;;;;5033820;28;20033;-76
2022/10/23 07:18:22;;;;;;;8.05;4.00;;;15.00;99.90;;;;;;5033952;28;20021;-77
2022/10/23 07:20:49;;;;;;;9.45;4.00;;;15.00;99.90;;;;;;5034113;28;20616;-75
2022/10/23 07:23:15;;;;;;;14.10;5.70;;;15.10;99.90;;;;;;5033788;28;20029;-75
2022/10/23 07:25:41;;;;;;;8.10;4.20;;;15.10;99.90;;;;;;5033348;28;20510;-76
2022/10/23 07:28:07;;;;;;;10.35;3.75;;;15.00;99.90;;;;;;5033626;28;20037;-76
2022/10/23 07:30:32;;;;;;;12.85;5.30;;;15.10;99.90;;;;;;5033536;28;20029;-76
2022/10/23 07:32:58;;;;;;;10.25;4.72;;;15.10;99.90;;;;;;5033557;28;20067;-75
2022/10/23 07:35:24;;;;;;;10.93;4.00;;;15.10;99.90;;;;;;5033595;28;20079;-76
2022/10/23 07:37:49;;;;;;;9.10;3.60;;;15.10;99.90;;;;;;5033649;28;20076;-76
2022/10/23 07:40:18;;;;;;;12.07;3.83;;;15.20;99.90;;;;;;5033776;28;20108;-76
2022/10/23 07:42:43;;;;;;;11.00;4.13;;;15.20;99.90;;;;;;5033293;28;20506;-76
2022/10/23 07:45:11;;;;;;;7.60;3.83;;;15.20;99.90;;;;;;5033434;28;20029;-76
2022/10/23 07:47:37;;;;;;;10.32;3.63;;;15.20;99.90;;;;;;5033308;28;20049;-78
2022/10/23 07:50:02;;;;;;;8.15;3.75;;;15.30;99.90;;;;;;5033312;28;20099;-77
2022/10/23 07:52:28;;;;;;;6.78;3.72;;;15.20;99.90;;;;;;5033343;28;20026;-78
2022/10/23 07:54:53;;;;;;;8.60;3.75;;;15.30;99.90;;;;;;5033482;28;20027;-76
2022/10/23 07:57:22;;;;;;;6.72;3.67;;;15.30;99.90;;;;;;5034544;28;20032;-76
2022/10/23 07:59:48;;;;;;;12.05;3.47;;;15.40;99.90;;;;;;5040198;28;20377;-76
2022/10/23 08:02:15;;;;;;;9.48;4.00;;;15.40;99.90;;;;;;5044738;28;20043;-72
2022/10/23 08:04:40;;;;;;;13.60;4.93;;;15.40;99.90;;;;;;5060724;28;20025;-75
2022/10/23 08:07:06;;;;;;;9.18;3.90;;;15.50;99.90;;;;;;5040843;28;20100;-74
2022/10/23 08:09:33;;;;;;;12.77;4.63;;;15.40;99.90;;;;;;5039827;28;20037;-76
2022/10/23 08:11:59;;;;;;;10.35;4.00;;;15.50;99.90;;;;;;5039293;28;20517;-76
2022/10/23 08:14:25;;;;;;;7.97;3.92;;;15.40;99.90;;;;;;5039704;28;20473;-78
2022/10/23 08:16:50;;;;;;;11.32;4.10;;;15.40;99.90;;;;;;5039678;28;20030;-76
2022/10/23 08:19:16;;;;;;;8.05;3.33;;;15.40;99.90;;;;;;5039837;28;20037;-77
2022/10/23 08:21:42;;;;;;;12.82;4.38;;;15.40;99.90;;;;;;5039881;28;20022;-76
2022/10/23 08:24:12;;;;;;;11.02;4.22;;;15.40;99.90;;;;;;5039411;28;20044;-75
2022/10/23 08:26:38;;;;;;;11.30;4.05;;;15.40;99.90;;;;;;5039511;28;20060;-73
2022/10/23 08:29:04;;;;;;;7.30;3.90;;;15.50;99.90;;;;;;5039399;28;20077;-75
2022/10/23 08:31:29;;;;;;;9.15;4.22;;;15.50;99.90;;;;;;5039581;28;20034;-74
2022/10/23 08:33:55;;;;;;;6.90;3.42;;;15.50;99.90;;;;;;5039353;28;20029;-74
2022/10/23 08:36:23;;;;;;;11.73;4.18;;;15.60;99.90;;;;;;5039528;28;20457;-74
2022/10/23 08:38:52;;;;;;;7.75;3.47;;;15.60;99.90;;;;;;5039288;28;20064;-76
2022/10/23 08:41:27;;;;;;;7.85;3.03;;;15.60;99.90;;;;;;5039586;28;20049;-76
2022/10/23 08:44:21;;;;;;;10.55;3.50;;;15.60;99.90;;;;;;5039262;28;20036;-75
2022/10/23 08:46:54;;;;;;;10.77;3.75;;;15.60;99.90;;;;;;5039725;28;20045;-78
2022/10/23 08:49:22;;;;;;;;;;;15.70;99.90;;;;;;5039887;28;20029;-74
2022/10/23 08:51:52;;;;;;;9.00;3.22;;;15.60;99.90;;;;;;5039386;28;19905;-75
2022/10/23 08:54:26;;;;;;;9.27;3.50;;;15.60;99.90;;;;;;5039137;28;20049;-75
2022/10/23 08:57:02;;;;;;;10.77;3.80;;;15.60;99.90;;;;;;5039516;28;20066;-75
2022/10/23 09:00:02;;;;;;;9.07;3.33;;;15.60;99.90;;;;;;5042009;28;20025;-73
2022/10/23 09:02:52;;;;;;;12.43;3.97;;;15.70;99.90;;;;;;5048412;28;20035;-76
2022/10/23 09:05:27;;;;;;;7.78;3.10;;;15.70;99.90;;;;;;5036348;28;20109;-76
2022/10/23 09:08:24;;;;;;;7.90;3.40;;;15.70;99.90;;;;;;5038944;28;20026;-74
2022/10/23 09:11:29;;;;;;;10.18;3.42;;;15.80;99.90;;;;;;5036320;28;20427;-75
2022/10/23 09:14:30;;;;;;;10.23;4.10;;;15.80;99.90;;;;;;5036394;28;20405;-76
2022/10/23 09:17:20;;;;;;;9.52;3.47;;;15.90;99.90;;;;;;5027383;28;20034;-76
2022/10/23 09:19:46;;;;;;;9.63;3.85;;;15.90;99.90;;;;;;5036139;28;20029;-75
2022/10/23 09:22:12;;;;;;;11.98;3.88;;;15.90;99.90;;;;;;5036064;28;20025;-75
2022/10/23 09:24:41;;;;;;;10.30;3.10;;;16.00;99.90;;;;;;5036113;28;20029;-76
2022/10/23 09:27:16;;;;;;;13.45;3.80;;;16.00;99.90;;;;;;5036070;28;20025;-75
2022/10/23 09:29:53;;;;;;;12.85;3.78;;;16.00;99.90;;;;;;5035459;28;20056;-76
2022/10/23 09:32:30;;;;;;;10.68;3.28;;;16.00;99.90;;;;;;5036168;28;20104;-75
2022/10/23 09:34:56;;;;;;;8.82;3.25;;;16.00;99.90;;;;;;5034824;28;20435;-73
2022/10/23 09:37:27;;;;;;;9.57;3.35;;;16.00;99.90;;;;;;5034463;28;20025;-73
2022/10/23 09:40:15;;;;;;;11.95;3.20;;;16.00;99.90;;;;;;5032668;28;20112;-72
2022/10/23 09:43:20;;;;;;;10.30;2.75;;;16.00;99.90;;;;;;5035812;28;20025;-73
2022/10/23 09:45:56;;;;;;;10.15;3.30;;;16.00;99.90;;;;;;5035657;28;20025;-72
2022/10/23 09:48:21;;;;;;;9.32;3.35;;;16.10;99.90;;;;;;5035448;28;20381;-72
2022/10/23 09:50:53;;;;;;;8.65;3.10;;;16.00;99.90;;;;;;5033735;28;20124;-72
2022/10/23 09:53:31;;;;;;;11.52;3.50;;;16.10;99.90;;;;;;5035326;28;20044;-71
2022/10/23 09:56:04;;;;;;;8.68;3.80;;;16.10;99.90;;;;;;5040745;28;20466;-71
2022/10/23 09:58:38;;;;;;;;;;;16.10;99.90;;;;;;5048114;28;20032;-72
2022/10/23 10:01:04;;;;;;;7.25;2.70;;;16.00;99.90;;;;;;5035085;28;20378;-72
2022/10/23 10:03:30;;;;;;;9.93;3.35;;;16.10;99.90;;;;;;5035252;28;20116;-73
2022/10/23 10:06:02;;;;;;;11.23;3.40;;;16.20;99.90;;;;;;5035144;28;20026;-73
2022/10/23 10:08:55;;;;;;;12.07;3.50;;;16.20;99.90;;;;;;5035333;28;20434;-71
2022/10/23 10:11:42;;;;;;;9.25;3.25;;;16.30;99.90;;;;;;5034873;28;20066;-72
2022/10/23 10:14:32;;;;;;;10.27;3.53;;;16.30;99.90;;;;;;5035083;28;20022;-72
2022/10/23 10:17:04;;;;;;;9.93;3.70;;;16.30;99.90;;;;;;5034920;28;20069;-71
2022/10/23 10:19:47;;;;;;;10.23;2.88;;;16.30;99.90;;;;;;5034697;28;20026;-72
2022/10/23 10:22:38;;;;;;;11.60;3.22;;;16.30;99.90;;;;;;5034552;28;20029;-72
2022/10/23 10:25:22;;;;;;;12.52;3.05;;;16.30;99.90;;;;;;5034727;28;20026;-72
2022/10/23 10:28:16;;;;;;;6.95;3.08;;;16.40;99.90;;;;;;5034548;28;20026;-72
2022/10/23 10:30:44;;;;;;;;;;;16.40;99.90;;;;;;5035209;28;20045;-71
2022/10/23 10:33:35;;;;;;;8.52;2.75;;;16.50;99.90;;;;;;5034630;28;19905;-72
2022/10/23 10:36:19;;;;;;;7.70;2.80;;;16.40;99.90;;;;;;5031434;28;20493;-72
2022/10/23 10:39:10;;;;;;;6.03;3.03;;;16.50;99.90;;;;;;5034370;28;20434;-72
2022/10/23 10:41:38;;;;;;;7.82;2.83;;;16.50;99.90;;;;;;5034647;28;20067;-71
2022/10/23 10:44:13;;;;;;;12.38;3.50;;;16.50;99.90;;;;;;5033909;28;20025;-72
2022/10/23 10:47:14;;;;;;;8.70;3.17;;;16.50;99.90;;;;;;5033950;28;20029;-74
2022/10/23 10:49:59;;;;;;;8.82;3.03;;;16.50;99.90;;;;;;5035475;28;20037;-70
2022/10/23 10:52:46;;;;;;;10.25;3.80;;;16.50;99.90;;;;;;5049621;28;20028;-71
2022/10/23 10:55:34;;;;;;;8.23;2.55;;;16.50;99.90;;;;;;5036171;28;20029;-72
2022/10/23 10:58:40;;;;;;;8.45;2.90;;;16.50;99.90;;;;;;5034208;28;20017;-72
2022/10/23 11:01:31;;;;;;;7.85;3.03;;;16.50;99.90;;;;;;5028032;28;20037;-72
2022/10/23 11:04:00;;;;;;;6.30;3.00;;;16.60;99.90;;;;;;5034203;28;20029;-71
2022/10/23 11:06:32;;;;;;;10.40;3.22;;;16.60;99.90;;;;;;5033704;28;20052;-72
2022/10/23 11:09:03;;;;;;;8.70;3.22;;;16.70;99.90;;;;;;5034006;28;20034;-72
2022/10/23 11:11:39;;;;;;;11.65;3.33;;;16.70;99.90;;;;;;5033758;28;20030;-72
2022/10/23 11:14:13;;;;;;;7.03;2.70;;;16.70;99.90;;;;;;5033646;28;20112;-72
2022/10/23 11:16:39;;;;;;;7.25;2.38;;;16.70;99.90;;;;;;5033887;28;20045;-72
2022/10/23 11:19:23;;;;;;;7.18;2.45;;;16.80;99.90;;;;;;5033489;28;20552;-74
2022/10/23 11:22:10;;;;;;;9.65;2.90;;;16.80;99.90;;;;;;5033765;28;20033;-72
2022/10/23 11:25:07;;;;;;;6.43;2.47;;;16.80;99.90;;;;;;5033550;28;20030;-73
2022/10/23 11:28:06;;;;;;;9.38;2.58;;;16.80;99.90;;;;;;5033825;28;20021;-72
2022/10/23 11:31:00;;;;;;;10.77;3.25;;;16.80;99.90;;;;;;5033166;28;20045;-73
2022/10/23 11:33:40;;;;;;;8.60;2.95;;;16.90;99.90;;;;;;5032457;28;20028;-72
2022/10/23 11:36:16;;;;;;;10.35;2.72;;;16.90;99.90;;;;;;5033393;28;20100;-73
2022/10/23 11:38:48;;;;;;;7.05;2.10;;;16.90;99.90;;;;;;5033339;28;20045;-73
2022/10/23 11:41:32;;;;;;;7.80;2.53;;;17.00;99.90;;;;;;5034090;28;20037;-78
2022/10/23 11:44:02;;;;;;;8.25;2.30;;;17.10;99.90;;;;;;5033838;28;20433;-78
2022/10/23 11:46:34;;;;;;;8.80;2.45;;;17.10;99.90;;;;;;5033638;28;20021;-75
2022/10/23 11:49:02;;;;;;;6.15;2.33;;;17.10;99.90;;;;;;5035555;28;20025;-74
2022/10/23 11:51:27;;;;;;;6.60;2.30;;;17.20;99.90;;;;;;5041752;28;20064;-73
2022/10/23 11:54:21;;;;;;;7.68;2.58;;;17.20;99.90;;;;;;5034447;28;20029;-76
2022/10/23 11:57:11;;;;;;;11.57;2.60;;;17.20;99.90;;;;;;5033304;28;20087;-75
2022/10/23 11:59:48;;;;;;;6.20;2.25;;;17.20;99.90;;;;;;5030264;28;20485;-75
2022/10/23 12:02:36;;;;;;;11.25;3.15;;;17.30;99.90;;;;;;5033151;28;20381;-72
2022/10/23 12:05:24;;;;;;;6.35;2.05;;;17.30;99.90;;;;;;5033121;28;20029;-73
2022/10/23 12:07:54;;;;;;;9.52;2.95;;;17.40;99.90;;;;;;5033120;28;20087;-73
2022/10/23 12:10:43;;;;;;;6.45;2.83;;;17.40;99.90;;;;;;5033262;28;20040;-73
2022/10/23 12:13:30;;;;;;;5.63;2.08;;;17.50;99.90;;;;;;5033394;28;20036;-76
2022/10/23 12:15:56;;;;;;;6.93;2.08;;;17.50;99.90;;;;;;5032787;28;20496;-76
2022/10/23 12:18:21;;;;;;;7.28;2.38;;;17.60;99.90;;;;;;5033142;28;20100;-75
2022/10/23 12:21:00;;;;;;;6.30;2.70;;;17.70;99.90;;;;;;5033342;28;20021;-76
2022/10/23 12:23:40;;;;;;;6.55;2.20;;;17.80;99.90;;;;;;5032915;28;20477;-75
2022/10/23 12:26:35;;;;;;;7.35;2.30;;;17.90;99.90;;;;;;5033155;28;20029;-74
2022/10/23 12:29:24;;;;;;;7.55;2.00;;;18.00;99.90;;;;;;5032561;28;20052;-74
2022/10/23 12:31:59;;;;;;;6.07;2.53;;;18.00;99.90;;;;;;5032896;28;20025;-74
2022/10/23 12:34:30;;;;;;;7.07;2.40;;;18.10;99.90;;;;;;5032555;28;20040;-73
2022/10/23 12:37:18;;;;;;;8.15;2.65;;;18.10;99.90;;;;;;5032965;28;20032;-76
2022/10/23 12:39:51;;;;;;;8.32;2.50;;;18.20;99.90;;;;;;5032919;28;20053;-73
2022/10/23 12:42:23;;;;;;;5.80;2.30;;;18.20;99.90;;;;;;5032698;28;20461;-73
2022/10/23 12:45:00;;;;;;;7.32;2.28;;;18.20;99.90;;;;;;5036338;28;20217;-70
2022/10/23 12:47:27;;;;;;;7.60;2.38;;;18.20;99.90;;;;;;5040795;28;20385;-72
2022/10/23 12:49:52;;;;;;;8.63;1.95;;;18.20;99.90;;;;;;5036847;28;20033;-75
2022/10/23 12:52:20;;;;;;;6.82;2.13;;;18.20;99.90;;;;;;5036571;28;20049;-73
2022/10/23 12:54:48;;;;;;;9.25;2.38;;;18.20;99.90;;;;;;5036545;28;20029;-74
2022/10/23 12:57:19;;;;;;;9.00;2.25;;;18.20;99.90;;;;;;5036334;28;20049;-75
2022/10/23 12:59:45;;;;;;;6.27;2.13;;;18.20;99.90;;;;;;5036601;28;20025;-74
2022/10/23 13:02:28;;;;;;;5.78;2.00;;;18.30;99.90;;;;;;5035738;28;20330;-75
2022/10/23 13:04:57;;;;;;;7.32;2.00;;;18.30;99.70;;;;;;5036403;28;20033;-74
2022/10/23 13:07:26;;;;;;;5.75;2.80;;;18.30;99.80;;;;;;5036209;28;20021;-74